Terminal Aerodrome Forecast
Issued by NWS

Home | Current Version | Previous Version | Text Only | Print | Product List | Glossary On
Versions: 1 2 3 4 5 6 7 8 9 10 11 12 13 14 15 16 17 18 19 20 21 22 23 24 25 26 27 28
000
FTUS45 KABQ 150000 AAA
TAFLVS
TAF AMD
KLVS 150024Z 1500/1524 32009KT P6SM VCSH SCT050 BKN080
      TEMPO 1500/1502 VRB17G28KT 2SM TSRA BKN030CB OVC060
     FM150200 19011KT P6SM SCT050 BKN090
     FM150400 20007KT P6SM FEW040 SCT120
     FM151300 05009KT P6SM FEW025 SCT120=

USA.gov is the U.S. government's official web portal to all federal, state and local government web resources and services.